<?xml version='1.0' encoding='UTF-8'?>
<gpx xmlns="http://www.topografix.com/GPX/1/1" creator="www.balnam.be" version="1.1" xmlns:xsi="http://www.w3.org/2001/XMLSchema-instance" xsi:schemaLocation="http://www.topografix.com/GPX/1/1 http://www.topografix.com/GPX/1/1/gpx.xsd">
<trk>
<name>bwvlmi12</name>
<cmt>v</cmt>
<desc>Limal Sentier n°i12 </desc>
<link href="https://chemins.be/limal/sentier/i12"/><trkseg>
<trkpt lat="50.708187" lon="4.554611"><time>2026-05-08T05:08:46Z</time></trkpt>
<trkpt lat="50.708401" lon="4.555263"><time>2026-05-08T05:18:46Z</time></trkpt>
<trkpt lat="50.708482" lon="4.555419"><time>2026-05-08T05:28:46Z</time></trkpt>
<trkpt lat="50.708581" lon="4.555561"><time>2026-05-08T05:38:46Z</time></trkpt>
<trkpt lat="50.708634" lon="4.555760"><time>2026-05-08T05:48:46Z</time></trkpt>
<trkpt lat="50.708643" lon="4.555788"><time>2026-05-08T05:58:46Z</time></trkpt>
<trkpt lat="50.708813" lon="4.556313"><time>2026-05-08T06:08:46Z</time></trkpt>
<trkpt lat="50.708831" lon="4.556383"><time>2026-05-08T06:18:46Z</time></trkpt>
<trkpt lat="50.708867" lon="4.556624"><time>2026-05-08T06:28:46Z</time></trkpt>
<trkpt lat="50.708867" lon="4.556653"><time>2026-05-08T06:38:46Z</time></trkpt>
<trkpt lat="50.708893" lon="4.556837"><time>2026-05-08T06:48:46Z</time></trkpt>
<trkpt lat="50.708956" lon="4.556964"><time>2026-05-08T06:58:46Z</time></trkpt>
<trkpt lat="50.708983" lon="4.557007"><time>2026-05-08T07:08:46Z</time></trkpt>
<trkpt lat="50.709073" lon="4.557149"><time>2026-05-08T07:18:46Z</time></trkpt>
<trkpt lat="50.709189" lon="4.557404"><time>2026-05-08T07:28:46Z</time></trkpt>
<trkpt lat="50.709332" lon="4.557858"><time>2026-05-08T07:38:46Z</time></trkpt>
<trkpt lat="50.709430" lon="4.558156"><time>2026-05-08T07:48:46Z</time></trkpt>
<trkpt lat="50.709475" lon="4.558326"><time>2026-05-08T07:58:46Z</time></trkpt>
<trkpt lat="50.709340" lon="4.558396"><time>2026-05-08T08:08:46Z</time></trkpt>
<trkpt lat="50.709304" lon="4.558566"><time>2026-05-08T08:18:46Z</time></trkpt>
<trkpt lat="50.709304" lon="4.558693"><time>2026-05-08T08:28:46Z</time></trkpt>
<trkpt lat="50.709420" lon="4.558821"><time>2026-05-08T08:38:46Z</time></trkpt>
<trkpt lat="50.709402" lon="4.558948"><time>2026-05-08T08:48:46Z</time></trkpt>
<trkpt lat="50.709168" lon="4.559202"><time>2026-05-08T08:58:46Z</time></trkpt>
<trkpt lat="50.709042" lon="4.559471"><time>2026-05-08T09:08:46Z</time></trkpt>
<trkpt lat="50.709436" lon="4.560350"><time>2026-05-08T09:18:46Z</time></trkpt>
<trkpt lat="50.709562" lon="4.560393"><time>2026-05-08T09:28:46Z</time></trkpt>
<trkpt lat="50.709759" lon="4.560805"><time>2026-05-08T09:38:46Z</time></trkpt>
</trkseg>
</trk>
</gpx>